sensor_id;sensor_type;location;lat;lon;timestamp;temperature;humidity
21815;DHT22;11069;48.988;8.450;2022-12-11T00:02:03;-1.70;99.90
21815;DHT22;11069;48.988;8.450;2022-12-11T00:04:30;-1.70;99.90
21815;DHT22;11069;48.988;8.450;2022-12-11T00:06:55;-1.80;99.90
21815;DHT22;11069;48.988;8.450;2022-12-11T00:09:21;-1.80;99.90
21815;DHT22;11069;48.988;8.450;2022-12-11T00:11:47;-1.80;99.90
21815;DHT22;11069;48.988;8.450;2022-12-11T00:14:13;-1.80;99.90
21815;DHT22;11069;48.988;8.450;2022-12-11T00:16:40;-1.70;99.90
21815;DHT22;11069;48.988;8.450;2022-12-11T00:19:06;-1.70;99.90
21815;DHT22;11069;48.988;8.450;2022-12-11T00:21:32;-1.50;99.90
21815;DHT22;11069;48.988;8.450;2022-12-11T00:23:57;-1.50;99.90
21815;DHT22;11069;48.988;8.450;2022-12-11T00:26:23;-1.40;99.90
21815;DHT22;11069;48.988;8.450;2022-12-11T00:28:53;-1.40;99.90
21815;DHT22;11069;48.988;8.450;2022-12-11T00:31:19;-1.40;99.90
21815;DHT22;11069;48.988;8.450;2022-12-11T00:33:45;-1.40;99.90
21815;DHT22;11069;48.988;8.450;2022-12-11T00:36:16;-1.30;99.90
21815;DHT22;11069;48.988;8.450;2022-12-11T00:38:42;-1.30;99.90
21815;DHT22;11069;48.988;8.450;2022-12-11T00:41:08;-1.30;99.90
21815;DHT22;11069;48.988;8.450;2022-12-11T00:43:34;-1.30;99.90
21815;DHT22;11069;48.988;8.450;2022-12-11T00:46:00;-1.20;99.90
21815;DHT22;11069;48.988;8.450;2022-12-11T00:48:25;-1.30;99.90
21815;DHT22;11069;48.988;8.450;2022-12-11T00:50:51;-1.30;99.90
21815;DHT22;11069;48.988;8.450;2022-12-11T00:53:16;-1.40;99.90
21815;DHT22;11069;48.988;8.450;2022-12-11T00:55:42;-1.50;99.90
21815;DHT22;11069;48.988;8.450;2022-12-11T00:58:09;-1.60;99.90
21815;DHT22;11069;48.988;8.450;2022-12-11T01:00:36;-1.60;99.90
21815;DHT22;11069;48.988;8.450;2022-12-11T01:03:01;-1.60;99.90
21815;DHT22;11069;48.988;8.450;2022-12-11T01:05:27;-1.70;99.90
21815;DHT22;11069;48.988;8.450;2022-12-11T01:07:53;-1.60;99.90
21815;DHT22;11069;48.988;8.450;2022-12-11T01:10:18;-1.60;99.90
21815;DHT22;11069;48.988;8.450;2022-12-11T01:12:51;-1.60;99.90
21815;DHT22;11069;48.988;8.450;2022-12-11T01:15:18;-1.70;99.90
21815;DHT22;11069;48.988;8.450;2022-12-11T01:17:44;-1.70;99.90
21815;DHT22;11069;48.988;8.450;2022-12-11T01:20:10;-1.80;99.90
21815;DHT22;11069;48.988;8.450;2022-12-11T01:22:36;-1.90;99.90
21815;DHT22;11069;48.988;8.450;2022-12-11T01:25:02;-1.90;99.90
21815;DHT22;11069;48.988;8.450;2022-12-11T01:27:27;-1.80;99.90
21815;DHT22;11069;48.988;8.450;2022-12-11T01:29:53;-1.80;99.90
21815;DHT22;11069;48.988;8.450;2022-12-11T01:32:18;-1.80;99.90
21815;DHT22;11069;48.988;8.450;2022-12-11T01:34:44;-1.70;99.90
21815;DHT22;11069;48.988;8.450;2022-12-11T01:37:09;-1.70;99.90
21815;DHT22;11069;48.988;8.450;2022-12-11T01:39:35;-1.80;99.90
21815;DHT22;11069;48.988;8.450;2022-12-11T01:42:03;-1.80;99.90
21815;DHT22;11069;48.988;8.450;2022-12-11T01:46:54;-1.90;99.90
21815;DHT22;11069;48.988;8.450;2022-12-11T01:49:23;-1.90;99.90
21815;DHT22;11069;48.988;8.450;2022-12-11T01:51:54;-2.00;99.90
21815;DHT22;11069;48.988;8.450;2022-12-11T01:54:23;-1.90;99.90
21815;DHT22;11069;48.988;8.450;2022-12-11T01:56:52;-2.00;99.90
21815;DHT22;11069;48.988;8.450;2022-12-11T01:59:23;-1.90;99.90
21815;DHT22;11069;48.988;8.450;2022-12-11T02:04:23;-1.90;99.90
21815;DHT22;11069;48.988;8.450;2022-12-11T02:06:51;-1.90;99.90
21815;DHT22;11069;48.988;8.450;2022-12-11T02:09:26;-1.80;99.90
21815;DHT22;11069;48.988;8.450;2022-12-11T02:12:35;-1.80;99.90
21815;DHT22;11069;48.988;8.450;2022-12-11T02:15:32;-1.70;99.90
21815;DHT22;11069;48.988;8.450;2022-12-11T02:18:11;-1.60;99.90
21815;DHT22;11069;48.988;8.450;2022-12-11T02:20:57;-1.50;99.90
21815;DHT22;11069;48.988;8.450;2022-12-11T02:26:31;-1.50;99.90
21815;DHT22;11069;48.988;8.450;2022-12-11T02:29:02;-1.40;99.90
21815;DHT22;11069;48.988;8.450;2022-12-11T02:31:33;-1.40;99.90
21815;DHT22;11069;48.988;8.450;2022-12-11T02:34:07;-1.30;99.90
21815;DHT22;11069;48.988;8.450;2022-12-11T02:36:37;-1.20;99.90
21815;DHT22;11069;48.988;8.450;2022-12-11T02:39:05;-1.20;99.90
21815;DHT22;11069;48.988;8.450;2022-12-11T02:41:31;-1.20;99.90
21815;DHT22;11069;48.988;8.450;2022-12-11T02:43:59;-1.30;99.90
21815;DHT22;11069;48.988;8.450;2022-12-11T02:46:26;-1.40;99.90
21815;DHT22;11069;48.988;8.450;2022-12-11T02:48:53;-1.40;99.90
21815;DHT22;11069;48.988;8.450;2022-12-11T02:51:24;-1.50;99.90
21815;DHT22;11069;48.988;8.450;2022-12-11T02:53:53;-1.60;99.90
21815;DHT22;11069;48.988;8.450;2022-12-11T02:56:28;-1.60;99.90
21815;DHT22;11069;48.988;8.450;2022-12-11T02:58:59;-1.60;99.90
21815;DHT22;11069;48.988;8.450;2022-12-11T03:01:26;-1.70;99.90
21815;DHT22;11069;48.988;8.450;2022-12-11T03:03:52;-1.60;99.90
21815;DHT22;11069;48.988;8.450;2022-12-11T03:06:21;-1.70;99.90
21815;DHT22;11069;48.988;8.450;2022-12-11T03:08:48;-1.70;99.90
21815;DHT22;11069;48.988;8.450;2022-12-11T03:11:16;-1.80;99.90
21815;DHT22;11069;48.988;8.450;2022-12-11T03:13:43;-1.80;99.90
21815;DHT22;11069;48.988;8.450;2022-12-11T03:18:51;-1.90;99.90
21815;DHT22;11069;48.988;8.450;2022-12-11T03:21:36;-1.80;99.90
21815;DHT22;11069;48.988;8.450;2022-12-11T03:24:14;-1.70;99.90
21815;DHT22;11069;48.988;8.450;2022-12-11T03:26:47;-1.70;99.90
21815;DHT22;11069;48.988;8.450;2022-12-11T03:29:17;-1.60;99.90
21815;DHT22;11069;48.988;8.450;2022-12-11T03:31:53;-1.50;99.90
21815;DHT22;11069;48.988;8.450;2022-12-11T03:34:50;-1.50;99.90
21815;DHT22;11069;48.988;8.450;2022-12-11T03:37:12;-1.40;99.90
21815;DHT22;11069;48.988;8.450;2022-12-11T03:39:49;-1.50;99.90
21815;DHT22;11069;48.988;8.450;2022-12-11T03:42:16;-1.50;99.90
21815;DHT22;11069;48.988;8.450;2022-12-11T03:44:46;-1.40;99.90
21815;DHT22;11069;48.988;8.450;2022-12-11T03:47:16;-1.40;99.90
21815;DHT22;11069;48.988;8.450;2022-12-11T03:49:43;-1.40;99.90
21815;DHT22;11069;48.988;8.450;2022-12-11T03:52:11;-1.40;99.90
21815;DHT22;11069;48.988;8.450;2022-12-11T03:54:40;-1.40;99.90
21815;DHT22;11069;48.988;8.450;2022-12-11T03:57:09;-1.30;99.90
21815;DHT22;11069;48.988;8.450;2022-12-11T03:59:36;-1.30;99.90
21815;DHT22;11069;48.988;8.450;2022-12-11T04:02:02;-1.20;99.90
21815;DHT22;11069;48.988;8.450;2022-12-11T04:04:36;-1.20;99.90
21815;DHT22;11069;48.988;8.450;2022-12-11T04:07:02;-1.30;99.90
21815;DHT22;11069;48.988;8.450;2022-12-11T04:09:27;-1.20;99.90
21815;DHT22;11069;48.988;8.450;2022-12-11T04:11:53;-1.20;99.90
21815;DHT22;11069;48.988;8.450;2022-12-11T04:14:19;-1.30;99.90
21815;DHT22;11069;48.988;8.450;2022-12-11T04:17:04;-1.30;99.90
21815;DHT22;11069;48.988;8.450;2022-12-11T04:19:29;-1.20;99.90
21815;DHT22;11069;48.988;8.450;2022-12-11T04:22:15;-1.20;99.90
21815;DHT22;11069;48.988;8.450;2022-12-11T04:25:00;-1.20;99.90
21815;DHT22;11069;48.988;8.450;2022-12-11T04:27:26;-1.20;99.90
21815;DHT22;11069;48.988;8.450;2022-12-11T04:30:13;-1.20;99.90
21815;DHT22;11069;48.988;8.450;2022-12-11T04:32:40;-1.10;99.90
21815;DHT22;11069;48.988;8.450;2022-12-11T04:35:07;-1.10;99.90
21815;DHT22;11069;48.988;8.450;2022-12-11T04:37:33;-1.00;99.90
21815;DHT22;11069;48.988;8.450;2022-12-11T04:39:59;-1.00;99.90
21815;DHT22;11069;48.988;8.450;2022-12-11T04:42:24;-1.00;99.90
21815;DHT22;11069;48.988;8.450;2022-12-11T04:44:50;-1.00;99.90
21815;DHT22;11069;48.988;8.450;2022-12-11T04:47:16;-1.00;99.90
21815;DHT22;11069;48.988;8.450;2022-12-11T04:49:41;-1.10;99.90
21815;DHT22;11069;48.988;8.450;2022-12-11T04:52:07;-1.20;99.90
21815;DHT22;11069;48.988;8.450;2022-12-11T04:54:32;-1.10;99.90
21815;DHT22;11069;48.988;8.450;2022-12-11T04:56:58;-1.20;99.90
21815;DHT22;11069;48.988;8.450;2022-12-11T04:59:24;-1.20;99.90
21815;DHT22;11069;48.988;8.450;2022-12-11T05:01:49;-1.20;99.90
21815;DHT22;11069;48.988;8.450;2022-12-11T05:04:15;-1.30;99.90
21815;DHT22;11069;48.988;8.450;2022-12-11T05:06:40;-1.30;99.90
21815;DHT22;11069;48.988;8.450;2022-12-11T05:09:10;-1.40;99.90
21815;DHT22;11069;48.988;8.450;2022-12-11T05:11:36;-1.40;99.90
21815;DHT22;11069;48.988;8.450;2022-12-11T05:14:02;-1.40;99.90
21815;DHT22;11069;48.988;8.450;2022-12-11T05:16:27;-1.40;99.90
21815;DHT22;11069;48.988;8.450;2022-12-11T05:18:53;-1.50;99.90
21815;DHT22;11069;48.988;8.450;2022-12-11T05:21:19;-1.50;99.90
21815;DHT22;11069;48.988;8.450;2022-12-11T05:23:44;-1.50;99.90
21815;DHT22;11069;48.988;8.450;2022-12-11T05:26:16;-1.50;99.90
21815;DHT22;11069;48.988;8.450;2022-12-11T05:28:43;-1.60;99.90
21815;DHT22;11069;48.988;8.450;2022-12-11T05:31:14;-1.60;99.90
21815;DHT22;11069;48.988;8.450;2022-12-11T05:33:40;-1.60;99.90
21815;DHT22;11069;48.988;8.450;2022-12-11T05:36:07;-1.60;99.90
21815;DHT22;11069;48.988;8.450;2022-12-11T05:38:33;-1.50;99.90
21815;DHT22;11069;48.988;8.450;2022-12-11T05:41:01;-1.60;99.90
21815;DHT22;11069;48.988;8.450;2022-12-11T05:43:29;-1.60;99.90
21815;DHT22;11069;48.988;8.450;2022-12-11T05:46:03;-1.60;99.90
21815;DHT22;11069;48.988;8.450;2022-12-11T05:48:28;-1.60;99.90
21815;DHT22;11069;48.988;8.450;2022-12-11T05:50:59;-1.60;99.90
21815;DHT22;11069;48.988;8.450;2022-12-11T05:53:25;-1.50;99.90
21815;DHT22;11069;48.988;8.450;2022-12-11T05:55:51;-1.50;99.90
21815;DHT22;11069;48.988;8.450;2022-12-11T05:58:17;-1.50;99.90
21815;DHT22;11069;48.988;8.450;2022-12-11T06:00:43;-1.50;99.90
21815;DHT22;11069;48.988;8.450;2022-12-11T06:03:08;-1.40;99.90
21815;DHT22;11069;48.988;8.450;2022-12-11T06:05:41;-1.40;99.90
21815;DHT22;11069;48.988;8.450;2022-12-11T06:08:06;-1.40;99.90
21815;DHT22;11069;48.988;8.450;2022-12-11T06:10:32;-1.30;99.90
21815;DHT22;11069;48.988;8.450;2022-12-11T06:12:58;-1.40;99.90
21815;DHT22;11069;48.988;8.450;2022-12-11T06:15:23;-1.30;99.90
21815;DHT22;11069;48.988;8.450;2022-12-11T06:17:49;-1.30;99.90
21815;DHT22;11069;48.988;8.450;2022-12-11T06:20:15;-1.20;99.90
21815;DHT22;11069;48.988;8.450;2022-12-11T06:22:40;-1.20;99.90
21815;DHT22;11069;48.988;8.450;2022-12-11T06:25:06;-1.30;99.90
21815;DHT22;11069;48.988;8.450;2022-12-11T06:27:32;-1.40;99.90
21815;DHT22;11069;48.988;8.450;2022-12-11T06:29:58;-1.30;99.90
21815;DHT22;11069;48.988;8.450;2022-12-11T06:32:23;-1.30;99.90
21815;DHT22;11069;48.988;8.450;2022-12-11T06:34:49;-1.20;99.90
21815;DHT22;11069;48.988;8.450;2022-12-11T06:37:14;-1.30;99.90
21815;DHT22;11069;48.988;8.450;2022-12-11T06:39:40;-1.30;99.90
21815;DHT22;11069;48.988;8.450;2022-12-11T06:42:06;-1.40;99.90
21815;DHT22;11069;48.988;8.450;2022-12-11T06:44:31;-1.50;99.90
21815;DHT22;11069;48.988;8.450;2022-12-11T06:46:57;-1.50;99.90
21815;DHT22;11069;48.988;8.450;2022-12-11T06:49:22;-1.50;99.90
21815;DHT22;11069;48.988;8.450;2022-12-11T06:51:48;-1.50;99.90
21815;DHT22;11069;48.988;8.450;2022-12-11T06:54:14;-1.50;99.90
21815;DHT22;11069;48.988;8.450;2022-12-11T06:56:39;-1.50;99.90
21815;DHT22;11069;48.988;8.450;2022-12-11T06:59:05;-1.50;99.90
21815;DHT22;11069;48.988;8.450;2022-12-11T07:01:31;-1.50;99.90
21815;DHT22;11069;48.988;8.450;2022-12-11T07:03:58;-1.50;99.90
21815;DHT22;11069;48.988;8.450;2022-12-11T07:06:26;-1.50;99.90
21815;DHT22;11069;48.988;8.450;2022-12-11T07:08:51;-1.50;99.90
21815;DHT22;11069;48.988;8.450;2022-12-11T07:11:18;-1.50;99.90
21815;DHT22;11069;48.988;8.450;2022-12-11T07:13:44;-1.50;99.90
21815;DHT22;11069;48.988;8.450;2022-12-11T07:16:12;-1.50;99.90
21815;DHT22;11069;48.988;8.450;2022-12-11T07:18:40;-1.50;99.90
21815;DHT22;11069;48.988;8.450;2022-12-11T07:21:07;-1.50;99.90
21815;DHT22;11069;48.988;8.450;2022-12-11T07:23:34;-1.40;99.90
21815;DHT22;11069;48.988;8.450;2022-12-11T07:26:04;-1.40;99.90
21815;DHT22;11069;48.988;8.450;2022-12-11T07:28:30;-1.40;99.90
21815;DHT22;11069;48.988;8.450;2022-12-11T07:30:55;-1.40;99.90
21815;DHT22;11069;48.988;8.450;2022-12-11T07:33:21;-1.40;99.90
21815;DHT22;11069;48.988;8.450;2022-12-11T07:35:46;-1.30;99.90
21815;DHT22;11069;48.988;8.450;2022-12-11T07:38:12;-1.30;99.90
21815;DHT22;11069;48.988;8.450;2022-12-11T07:40:37;-1.30;99.90
21815;DHT22;11069;48.988;8.450;2022-12-11T07:43:03;-1.30;99.90
21815;DHT22;11069;48.988;8.450;2022-12-11T07:45:29;-1.30;99.90
21815;DHT22;11069;48.988;8.450;2022-12-11T07:47:54;-1.20;99.90
21815;DHT22;11069;48.988;8.450;2022-12-11T07:50:20;-1.20;99.90
21815;DHT22;11069;48.988;8.450;2022-12-11T07:52:45;-1.10;99.90
21815;DHT22;11069;48.988;8.450;2022-12-11T07:55:11;-1.10;99.90
21815;DHT22;11069;48.988;8.450;2022-12-11T07:57:37;-1.10;99.90
21815;DHT22;11069;48.988;8.450;2022-12-11T08:00:03;-1.00;99.90
21815;DHT22;11069;48.988;8.450;2022-12-11T08:02:29;-0.90;99.90
21815;DHT22;11069;48.988;8.450;2022-12-11T08:04:54;-0.90;99.90
21815;DHT22;11069;48.988;8.450;2022-12-11T08:07:20;-0.80;99.90
21815;DHT22;11069;48.988;8.450;2022-12-11T08:09:46;-0.80;99.90
21815;DHT22;11069;48.988;8.450;2022-12-11T08:12:12;-0.80;99.90
21815;DHT22;11069;48.988;8.450;2022-12-11T08:14:37;-0.80;99.90
21815;DHT22;11069;48.988;8.450;2022-12-11T08:17:03;-0.70;99.90
21815;DHT22;11069;48.988;8.450;2022-12-11T08:19:29;-0.70;99.90
21815;DHT22;11069;48.988;8.450;2022-12-11T08:21:54;-0.60;99.90
21815;DHT22;11069;48.988;8.450;2022-12-11T08:24:20;-0.60;99.90
21815;DHT22;11069;48.988;8.450;2022-12-11T08:26:46;-0.60;99.90
21815;DHT22;11069;48.988;8.450;2022-12-11T08:29:12;-0.60;99.90
21815;DHT22;11069;48.988;8.450;2022-12-11T08:31:39;-0.60;99.90
21815;DHT22;11069;48.988;8.450;2022-12-11T08:34:05;-0.60;99.90
21815;DHT22;11069;48.988;8.450;2022-12-11T08:36:31;-0.50;99.90
21815;DHT22;11069;48.988;8.450;2022-12-11T08:38:57;-0.50;99.90
21815;DHT22;11069;48.988;8.450;2022-12-11T08:41:24;-0.40;99.90
21815;DHT22;11069;48.988;8.450;2022-12-11T08:43:50;-0.40;99.90
21815;DHT22;11069;48.988;8.450;2022-12-11T08:46:25;-0.30;99.90
21815;DHT22;11069;48.988;8.450;2022-12-11T08:48:51;-0.20;99.90
21815;DHT22;11069;48.988;8.450;2022-12-11T08:51:20;-0.10;99.90
21815;DHT22;11069;48.988;8.450;2022-12-11T08:53:47;-0.10;99.90
21815;DHT22;11069;48.988;8.450;2022-12-11T08:56:18;-0.10;99.90
21815;DHT22;11069;48.988;8.450;2022-12-11T08:58:44;0.00;99.90
21815;DHT22;11069;48.988;8.450;2022-12-11T09:01:15;0.00;99.90
21815;DHT22;11069;48.988;8.450;2022-12-11T09:03:42;0.00;99.90
21815;DHT22;11069;48.988;8.450;2022-12-11T09:06:10;0.00;99.90
21815;DHT22;11069;48.988;8.450;2022-12-11T09:08:36;0.10;99.90
21815;DHT22;11069;48.988;8.450;2022-12-11T09:11:16;0.10;99.90
21815;DHT22;11069;48.988;8.450;2022-12-11T09:13:42;0.20;99.90
21815;DHT22;11069;48.988;8.450;2022-12-11T09:16:11;0.30;99.90
21815;DHT22;11069;48.988;8.450;2022-12-11T09:18:38;0.40;99.90
21815;DHT22;11069;48.988;8.450;2022-12-11T09:21:09;0.30;99.90
21815;DHT22;11069;48.988;8.450;2022-12-11T09:23:35;0.40;99.90
21815;DHT22;11069;48.988;8.450;2022-12-11T09:26:13;0.40;99.90
21815;DHT22;11069;48.988;8.450;2022-12-11T09:28:40;0.50;99.90
21815;DHT22;11069;48.988;8.450;2022-12-11T09:33:38;0.50;99.90
21815;DHT22;11069;48.988;8.450;2022-12-11T09:36:04;0.40;99.90
21815;DHT22;11069;48.988;8.450;2022-12-11T09:38:31;0.50;99.90
21815;DHT22;11069;48.988;8.450;2022-12-11T09:40:57;0.50;99.90
21815;DHT22;11069;48.988;8.450;2022-12-11T09:43:41;0.60;99.90
21815;DHT22;11069;48.988;8.450;2022-12-11T09:46:12;0.70;99.90
21815;DHT22;11069;48.988;8.450;2022-12-11T09:48:46;0.70;99.90
21815;DHT22;11069;48.988;8.450;2022-12-11T09:51:27;0.70;99.90
21815;DHT22;11069;48.988;8.450;2022-12-11T09:53:58;0.80;99.90
21815;DHT22;11069;48.988;8.450;2022-12-11T09:56:32;0.80;99.90
21815;DHT22;11069;48.988;8.450;2022-12-11T10:02:02;0.90;99.90
21815;DHT22;11069;48.988;8.450;2022-12-11T10:05:00;0.80;99.90
21815;DHT22;11069;48.988;8.450;2022-12-11T10:07:39;0.90;99.90
21815;DHT22;11069;48.988;8.450;2022-12-11T10:10:56;0.80;99.90
21815;DHT22;11069;48.988;8.450;2022-12-11T10:18:15;1.00;99.90
21815;DHT22;11069;48.988;8.450;2022-12-11T10:20:42;1.20;99.90
21815;DHT22;11069;48.988;8.450;2022-12-11T10:23:17;1.20;99.90
21815;DHT22;11069;48.988;8.450;2022-12-11T10:25:54;1.20;99.90
21815;DHT22;11069;48.988;8.450;2022-12-11T10:28:20;1.20;99.90
21815;DHT22;11069;48.988;8.450;2022-12-11T10:31:31;1.30;99.90
21815;DHT22;11069;48.988;8.450;2022-12-11T10:34:12;1.20;99.90
21815;DHT22;11069;48.988;8.450;2022-12-11T10:36:40;1.20;99.90
21815;DHT22;11069;48.988;8.450;2022-12-11T10:39:17;1.20;99.90
21815;DHT22;11069;48.988;8.450;2022-12-11T10:41:45;1.20;99.90
21815;DHT22;11069;48.988;8.450;2022-12-11T10:44:29;1.20;99.90
21815;DHT22;11069;48.988;8.450;2022-12-11T10:47:10;1.30;99.90
21815;DHT22;11069;48.988;8.450;2022-12-11T10:49:38;1.10;99.90
21815;DHT22;11069;48.988;8.450;2022-12-11T10:52:41;1.10;99.90
21815;DHT22;11069;48.988;8.450;2022-12-11T10:58:21;1.30;99.90
21815;DHT22;11069;48.988;8.450;2022-12-11T11:01:04;1.40;99.90
21815;DHT22;11069;48.988;8.450;2022-12-11T11:03:32;1.50;99.90
21815;DHT22;11069;48.988;8.450;2022-12-11T11:06:16;1.40;99.90
21815;DHT22;11069;48.988;8.450;2022-12-11T11:08:45;1.50;99.90
21815;DHT22;11069;48.988;8.450;2022-12-11T11:14:09;1.50;99.90
21815;DHT22;11069;48.988;8.450;2022-12-11T11:16:37;1.60;99.90
21815;DHT22;11069;48.988;8.450;2022-12-11T11:19:04;1.60;99.90
21815;DHT22;11069;48.988;8.450;2022-12-11T11:21:30;1.80;99.90
21815;DHT22;11069;48.988;8.450;2022-12-11T11:23:56;1.80;99.90
21815;DHT22;11069;48.988;8.450;2022-12-11T11:26:22;1.50;99.90
21815;DHT22;11069;48.988;8.450;2022-12-11T11:28:52;1.60;99.90
21815;DHT22;11069;48.988;8.450;2022-12-11T11:31:21;1.70;99.90
21815;DHT22;11069;48.988;8.450;2022-12-11T11:34:06;1.70;99.90
21815;DHT22;11069;48.988;8.450;2022-12-11T11:36:38;1.70;99.90
21815;DHT22;11069;48.988;8.450;2022-12-11T11:39:19;1.60;99.90
21815;DHT22;11069;48.988;8.450;2022-12-11T11:41:54;1.50;99.90
21815;DHT22;11069;48.988;8.450;2022-12-11T11:44:29;1.50;99.90
21815;DHT22;11069;48.988;8.450;2022-12-11T11:47:07;1.40;99.90
21815;DHT22;11069;48.988;8.450;2022-12-11T11:52:33;1.40;99.90
21815;DHT22;11069;48.988;8.450;2022-12-11T11:57:57;1.60;99.90
21815;DHT22;11069;48.988;8.450;2022-12-11T12:00:25;1.70;99.90
21815;DHT22;11069;48.988;8.450;2022-12-11T12:02:57;1.60;99.90
21815;DHT22;11069;48.988;8.450;2022-12-11T12:05:54;1.60;99.90
21815;DHT22;11069;48.988;8.450;2022-12-11T12:11:39;1.40;99.90
21815;DHT22;11069;48.988;8.450;2022-12-11T12:14:26;1.50;99.90
21815;DHT22;11069;48.988;8.450;2022-12-11T12:27:58;1.50;99.90
21815;DHT22;11069;48.988;8.450;2022-12-11T12:30:33;1.60;99.90
21815;DHT22;11069;48.988;8.450;2022-12-11T12:36:17;1.80;99.90
21815;DHT22;11069;48.988;8.450;2022-12-11T12:39:04;1.90;99.90
21815;DHT22;11069;48.988;8.450;2022-12-11T12:44:21;2.00;99.90
21815;DHT22;11069;48.988;8.450;2022-12-11T12:49:35;2.20;99.90
21815;DHT22;11069;48.988;8.450;2022-12-11T12:52:05;2.10;99.90
21815;DHT22;11069;48.988;8.450;2022-12-11T12:54:32;2.10;99.90
21815;DHT22;11069;48.988;8.450;2022-12-11T12:57:01;1.90;99.90
21815;DHT22;11069;48.988;8.450;2022-12-11T12:59:28;1.90;99.90
21815;DHT22;11069;48.988;8.450;2022-12-11T13:01:57;1.90;99.90
21815;DHT22;11069;48.988;8.450;2022-12-11T13:06:56;2.00;99.90
21815;DHT22;11069;48.988;8.450;2022-12-11T13:09:25;2.10;99.90
21815;DHT22;11069;48.988;8.450;2022-12-11T13:11:54;2.20;99.90
21815;DHT22;11069;48.988;8.450;2022-12-11T13:14:26;2.00;99.90
21815;DHT22;11069;48.988;8.450;2022-12-11T13:17:03;2.00;99.90
21815;DHT22;11069;48.988;8.450;2022-12-11T13:19:32;1.90;99.90
21815;DHT22;11069;48.988;8.450;2022-12-11T13:24:31;1.90;99.90
21815;DHT22;11069;48.988;8.450;2022-12-11T13:27:08;1.80;99.90
21815;DHT22;11069;48.988;8.450;2022-12-11T13:29:37;1.90;99.90
21815;DHT22;11069;48.988;8.450;2022-12-11T13:34:37;2.00;99.90
21815;DHT22;11069;48.988;8.450;2022-12-11T13:37:05;1.90;99.90
21815;DHT22;11069;48.988;8.450;2022-12-11T13:39:33;1.80;99.90
21815;DHT22;11069;48.988;8.450;2022-12-11T13:42:06;1.60;99.90
21815;DHT22;11069;48.988;8.450;2022-12-11T13:44:35;1.50;99.90
21815;DHT22;11069;48.988;8.450;2022-12-11T13:47:05;1.40;99.90
21815;DHT22;11069;48.988;8.450;2022-12-11T13:49:35;1.20;99.90
21815;DHT22;11069;48.988;8.450;2022-12-11T13:52:03;1.20;99.90
21815;DHT22;11069;48.988;8.450;2022-12-11T13:54:31;1.10;99.90
21815;DHT22;11069;48.988;8.450;2022-12-11T13:59:41;1.20;99.90
21815;DHT22;11069;48.988;8.450;2022-12-11T14:02:24;1.20;99.90
21815;DHT22;11069;48.988;8.450;2022-12-11T14:04:55;1.20;99.90
21815;DHT22;11069;48.988;8.450;2022-12-11T14:07:33;1.10;99.90
21815;DHT22;11069;48.988;8.450;2022-12-11T14:10:15;1.00;99.90
21815;DHT22;11069;48.988;8.450;2022-12-11T14:15:35;1.00;99.90
21815;DHT22;11069;48.988;8.450;2022-12-11T14:18:01;1.00;99.90
21815;DHT22;11069;48.988;8.450;2022-12-11T14:20:29;1.00;99.90
21815;DHT22;11069;48.988;8.450;2022-12-11T14:23:19;1.10;99.90
21815;DHT22;11069;48.988;8.450;2022-12-11T14:25:56;1.10;99.90
21815;DHT22;11069;48.988;8.450;2022-12-11T14:28:23;1.10;99.90
21815;DHT22;11069;48.988;8.450;2022-12-11T14:30:53;1.10;99.90
21815;DHT22;11069;48.988;8.450;2022-12-11T14:33:21;1.10;99.90
21815;DHT22;11069;48.988;8.450;2022-12-11T14:35:47;1.10;99.90
21815;DHT22;11069;48.988;8.450;2022-12-11T14:38:28;1.20;99.90
21815;DHT22;11069;48.988;8.450;2022-12-11T14:41:02;1.20;99.90
21815;DHT22;11069;48.988;8.450;2022-12-11T14:43:40;1.10;99.90
21815;DHT22;11069;48.988;8.450;2022-12-11T14:46:14;1.10;99.90
21815;DHT22;11069;48.988;8.450;2022-12-11T14:48:49;1.00;99.90
21815;DHT22;11069;48.988;8.450;2022-12-11T14:51:18;1.00;99.90
21815;DHT22;11069;48.988;8.450;2022-12-11T14:53:46;1.00;99.90
21815;DHT22;11069;48.988;8.450;2022-12-11T14:56:24;0.90;99.90
21815;DHT22;11069;48.988;8.450;2022-12-11T14:58:58;0.90;99.90
21815;DHT22;11069;48.988;8.450;2022-12-11T15:01:30;0.90;99.90
21815;DHT22;11069;48.988;8.450;2022-12-11T15:04:21;0.90;99.90
21815;DHT22;11069;48.988;8.450;2022-12-11T15:06:48;0.80;99.90
21815;DHT22;11069;48.988;8.450;2022-12-11T15:11:55;0.70;99.90
21815;DHT22;11069;48.988;8.450;2022-12-11T15:14:21;0.70;99.90
21815;DHT22;11069;48.988;8.450;2022-12-11T15:16:49;0.60;99.90
21815;DHT22;11069;48.988;8.450;2022-12-11T15:19:36;0.50;99.90
21815;DHT22;11069;48.988;8.450;2022-12-11T15:22:04;0.50;99.90
21815;DHT22;11069;48.988;8.450;2022-12-11T15:24:39;0.40;99.90
21815;DHT22;11069;48.988;8.450;2022-12-11T15:29:58;0.50;99.90
21815;DHT22;11069;48.988;8.450;2022-12-11T15:32:24;0.50;99.90
21815;DHT22;11069;48.988;8.450;2022-12-11T15:34:56;0.40;99.90
21815;DHT22;11069;48.988;8.450;2022-12-11T15:37:32;0.40;99.90
21815;DHT22;11069;48.988;8.450;2022-12-11T15:40:02;0.30;99.90
21815;DHT22;11069;48.988;8.450;2022-12-11T15:42:36;0.30;99.90
21815;DHT22;11069;48.988;8.450;2022-12-11T15:45:13;0.40;99.90
21815;DHT22;11069;48.988;8.450;2022-12-11T15:47:41;0.30;99.90
21815;DHT22;11069;48.988;8.450;2022-12-11T15:52:43;0.30;99.90
21815;DHT22;11069;48.988;8.450;2022-12-11T15:55:09;0.30;99.90
21815;DHT22;11069;48.988;8.450;2022-12-11T15:57:36;0.50;99.90
21815;DHT22;11069;48.988;8.450;2022-12-11T16:00:03;0.50;99.90
21815;DHT22;11069;48.988;8.450;2022-12-11T16:02:31;0.40;99.90
21815;DHT22;11069;48.988;8.450;2022-12-11T16:04:56;0.30;99.90
21815;DHT22;11069;48.988;8.450;2022-12-11T16:07:24;0.30;99.90
21815;DHT22;11069;48.988;8.450;2022-12-11T16:09:51;0.40;99.90
21815;DHT22;11069;48.988;8.450;2022-12-11T16:12:17;0.40;99.90
21815;DHT22;11069;48.988;8.450;2022-12-11T16:14:43;0.50;99.90
21815;DHT22;11069;48.988;8.450;2022-12-11T16:17:11;0.50;99.90
21815;DHT22;11069;48.988;8.450;2022-12-11T16:19:37;0.50;99.90
21815;DHT22;11069;48.988;8.450;2022-12-11T16:22:04;0.50;99.90
21815;DHT22;11069;48.988;8.450;2022-12-11T16:24:30;0.40;99.90
21815;DHT22;11069;48.988;8.450;2022-12-11T16:26:56;0.50;99.90
21815;DHT22;11069;48.988;8.450;2022-12-11T16:29:22;0.40;99.90
21815;DHT22;11069;48.988;8.450;2022-12-11T16:31:47;0.40;99.90
21815;DHT22;11069;48.988;8.450;2022-12-11T16:34:13;0.40;99.90
21815;DHT22;11069;48.988;8.450;2022-12-11T16:36:39;0.40;99.90
21815;DHT22;11069;48.988;8.450;2022-12-11T16:39:04;0.40;99.90
21815;DHT22;11069;48.988;8.450;2022-12-11T16:41:30;0.40;99.90
21815;DHT22;11069;48.988;8.450;2022-12-11T16:43:55;0.40;99.90
21815;DHT22;11069;48.988;8.450;2022-12-11T16:46:22;0.30;99.90
21815;DHT22;11069;48.988;8.450;2022-12-11T16:48:48;0.20;99.90
21815;DHT22;11069;48.988;8.450;2022-12-11T16:51:15;0.20;99.90
21815;DHT22;11069;48.988;8.450;2022-12-11T16:53:41;0.10;99.90
21815;DHT22;11069;48.988;8.450;2022-12-11T16:56:07;0.20;99.90
21815;DHT22;11069;48.988;8.450;2022-12-11T16:58:34;0.30;99.90
21815;DHT22;11069;48.988;8.450;2022-12-11T17:01:00;0.20;99.90
21815;DHT22;11069;48.988;8.450;2022-12-11T17:03:32;0.20;99.90
21815;DHT22;11069;48.988;8.450;2022-12-11T17:05:57;0.20;99.90
21815;DHT22;11069;48.988;8.450;2022-12-11T17:08:24;0.20;99.90
21815;DHT22;11069;48.988;8.450;2022-12-11T17:10:51;0.30;99.90